Hollis, New Hampshire
Current Conditions -  °F | °C
As of 6:51 PM on Saturday 22 Nov 2014 (Local Time) from KASH Reporting Station
Overcast Overcast  
Wind Chill:   Ceiling: 4400
Heat Index:   Visibility: 10mi
Dew Point: -12°   Wind: 5mph
Humidity: 29%   Direction: NA
Pressure: 30.08"   Gusts: NA
Location:  42.74°N, 71.59°W
Report Text: KASH 222351Z VRB04KT 10SM OVC044 04/M12 A3008 RMK AO2 55016 T00441122 10050 20027 SLP445
Loading
Personal Weather Stations






























Interactive Weather Map New forecast layout! Learn more

10-Day Weather Forecast

Advertisements
Track Severe Weather on mobile